createdAt,value
2019-03-16T00:01:14.738Z,80.90
2019-03-16T00:06:21.193Z,81.50
2019-03-16T00:11:27.655Z,83.00
2019-03-16T00:16:34.208Z,83.90
2019-03-16T00:21:40.678Z,84.60
2019-03-16T00:26:47.237Z,85.30
2019-03-16T00:31:53.848Z,85.10
2019-03-16T00:37:00.712Z,84.30
2019-03-16T00:42:07.333Z,84.20
2019-03-16T00:47:13.867Z,84.00
2019-03-16T00:52:20.357Z,83.90
2019-03-16T00:57:26.922Z,83.30
2019-03-16T01:02:33.556Z,83.60
2019-03-16T01:07:40.153Z,83.60
2019-03-16T01:12:46.760Z,83.60
2019-03-16T01:17:53.395Z,83.80
2019-03-16T01:22:59.943Z,85.00
2019-03-16T01:28:07.627Z,83.30
2019-03-16T01:33:14.238Z,84.30
2019-03-16T01:38:20.867Z,84.10
2019-03-16T01:43:27.410Z,83.50
2019-03-16T01:48:33.937Z,85.10
2019-03-16T01:53:40.484Z,83.20
2019-03-16T01:58:46.966Z,83.80
2019-03-16T02:03:53.501Z,82.20
2019-03-16T02:08:59.955Z,82.10
2019-03-16T02:14:06.578Z,81.90
2019-03-16T02:19:13.163Z,81.40
2019-03-16T02:24:19.791Z,81.00
2019-03-16T02:29:26.249Z,82.50
2019-03-16T02:34:32.874Z,82.00
2019-03-16T02:39:39.334Z,80.60
2019-03-16T02:44:45.900Z,80.50
2019-03-16T02:49:52.392Z,81.70
2019-03-16T02:54:58.870Z,82.10
2019-03-16T03:00:08.456Z,80.90
2019-03-16T03:05:15.101Z,81.40
2019-03-16T03:10:21.633Z,81.20
2019-03-16T03:15:28.173Z,80.90
2019-03-16T03:20:34.742Z,81.10
2019-03-16T03:25:41.221Z,81.20
2019-03-16T03:30:47.853Z,81.30
2019-03-16T03:35:54.496Z,82.40
2019-03-16T03:41:02.005Z,82.30
2019-03-16T03:46:08.831Z,83.50
2019-03-16T03:51:15.381Z,83.90
2019-03-16T03:56:21.938Z,83.40
2019-03-16T04:01:28.570Z,82.30
2019-03-16T04:06:35.291Z,83.20
2019-03-16T04:11:41.917Z,83.40
2019-03-16T04:16:48.574Z,83.70
2019-03-16T04:21:55.281Z,82.80
2019-03-16T04:27:14.935Z,82.50
2019-03-16T04:32:09.974Z,82.70
2019-03-16T04:37:16.517Z,82.50
2019-03-16T04:42:23.138Z,82.10
2019-03-16T04:47:29.600Z,82.60
2019-03-16T04:52:36.005Z,81.00
2019-03-16T04:57:42.646Z,81.70
2019-03-16T05:02:49.281Z,81.60
2019-03-16T05:07:55.844Z,81.00
2019-03-16T05:13:02.379Z,80.80
2019-03-16T05:18:08.793Z,81.90
2019-03-16T05:23:15.347Z,81.00
2019-03-16T05:28:21.908Z,81.90
2019-03-16T05:33:28.324Z,82.20
2019-03-16T05:38:35.968Z,82.00
2019-03-16T05:43:42.433Z,81.20
2019-03-16T05:48:48.925Z,82.10
2019-03-16T05:53:55.316Z,82.30
2019-03-16T05:59:01.875Z,82.70
2019-03-16T06:04:08.435Z,81.50
2019-03-16T06:09:15.040Z,80.50
2019-03-16T06:14:21.523Z,80.80
2019-03-16T06:19:28.088Z,80.80
2019-03-16T06:24:34.552Z,81.20
2019-03-16T06:29:41.009Z,82.70
2019-03-16T06:34:47.661Z,83.40
2019-03-16T06:39:54.084Z,83.60
2019-03-16T06:45:00.629Z,83.20
2019-03-16T06:50:08.886Z,83.10
2019-03-16T06:55:15.508Z,83.50
2019-03-16T07:00:22.628Z,83.70
2019-03-16T07:05:38.099Z,85.30
2019-03-16T07:10:39.493Z,84.50
2019-03-16T07:15:46.115Z,84.80
2019-03-16T07:20:53.341Z,83.40
2019-03-16T07:26:13.698Z,84.30
2019-03-16T07:31:08.467Z,82.50
2019-03-16T07:36:14.835Z,83.30
2019-03-16T07:41:21.401Z,84.30
2019-03-16T07:46:28.914Z,85.10
2019-03-16T07:51:35.714Z,85.40
2019-03-16T07:56:42.437Z,85.70
2019-03-16T08:01:49.005Z,84.90
2019-03-16T08:06:55.701Z,85.70
2019-03-16T08:12:03.305Z,87.20
2019-03-16T08:17:12.225Z,85.70
2019-03-16T08:22:18.693Z,87.10
2019-03-16T08:27:25.157Z,88.70
2019-03-16T08:32:31.818Z,88.10
2019-03-16T08:37:38.353Z,90.50
2019-03-16T08:42:44.878Z,89.70
2019-03-16T08:47:51.423Z,89.80
2019-03-16T08:52:57.984Z,89.10
2019-03-16T08:58:06.266Z,91.90
2019-03-16T09:03:14.031Z,90.90
2019-03-16T09:08:20.429Z,91.20
2019-03-16T09:13:27.022Z,91.60
2019-03-16T09:18:33.546Z,93.90
2019-03-16T09:23:40.135Z,93.90
2019-03-16T09:28:46.818Z,93.90
2019-03-16T09:33:53.348Z,94.00
2019-03-16T09:38:59.976Z,95.60
2019-03-16T09:44:06.872Z,95.40
2019-03-16T09:49:13.250Z,95.70
2019-03-16T09:54:19.630Z,96.30
2019-03-16T09:59:26.257Z,96.40
2019-03-16T10:04:32.670Z,96.60
2019-03-16T10:09:39.208Z,96.50
2019-03-16T10:14:45.782Z,96.90
2019-03-16T10:19:52.492Z,96.00
2019-03-16T10:24:59.046Z,96.20
2019-03-16T10:30:07.102Z,95.00
2019-03-16T10:35:13.714Z,95.70
2019-03-16T10:40:20.262Z,96.10
2019-03-16T10:45:26.873Z,95.60
2019-03-16T10:50:33.397Z,96.00
2019-03-16T10:55:40.160Z,95.20
2019-03-16T11:00:46.627Z,95.00
2019-03-16T11:05:53.170Z,96.20
2019-03-16T11:10:59.645Z,96.90
2019-03-16T11:16:10.784Z,96.30
2019-03-16T11:21:17.456Z,96.20
2019-03-16T11:26:24.162Z,96.10
2019-03-16T11:31:30.765Z,96.00
2019-03-16T11:36:37.304Z,96.40
2019-03-16T11:41:43.684Z,96.60
2019-03-16T11:46:50.286Z,97.70
2019-03-16T11:51:56.793Z,96.90
2019-03-16T11:57:03.647Z,97.60
2019-03-16T12:02:10.330Z,96.30
2019-03-16T12:07:16.835Z,96.70
2019-03-16T12:12:23.507Z,96.90
2019-03-16T12:17:30.151Z,97.60
2019-03-16T12:22:36.761Z,98.20
2019-03-16T12:27:43.368Z,97.00
2019-03-16T12:32:49.909Z,96.20
2019-03-16T12:37:56.512Z,95.60
2019-03-16T12:43:03.048Z,95.40
2019-03-16T12:48:09.748Z,94.30
2019-03-16T12:53:16.314Z,94.10
2019-03-16T12:58:22.900Z,94.40
2019-03-16T13:03:29.562Z,94.30
2019-03-16T13:08:35.942Z,93.20
2019-03-16T13:13:42.532Z,93.50
2019-03-16T13:18:49.298Z,93.90
2019-03-16T13:23:55.860Z,93.00
2019-03-16T13:29:02.322Z,94.00
2019-03-16T13:34:08.987Z,94.00
2019-03-16T13:39:15.502Z,94.60
2019-03-16T13:44:21.979Z,93.80
2019-03-16T13:49:28.521Z,94.20
2019-03-16T13:54:35.155Z,93.20
2019-03-16T14:00:11.235Z,93.30
2019-03-16T14:05:10.428Z,93.00
2019-03-16T14:10:18.515Z,93.30
2019-03-16T14:15:25.104Z,93.20
2019-03-16T14:20:31.687Z,92.60
2019-03-16T14:25:38.572Z,92.90
2019-03-16T14:30:45.451Z,90.50
2019-03-16T14:35:52.173Z,92.20
2019-03-16T14:40:58.727Z,91.80
2019-03-16T14:46:05.363Z,91.60
2019-03-16T14:51:11.919Z,91.70
2019-03-16T14:56:18.628Z,90.80
2019-03-16T15:01:25.279Z,90.30
2019-03-16T15:06:31.817Z,91.10
2019-03-16T15:11:38.441Z,90.40
2019-03-16T15:16:45.036Z,90.00
2019-03-16T15:21:51.718Z,89.20
2019-03-16T15:26:58.264Z,88.70
2019-03-16T15:32:04.816Z,88.60
2019-03-16T15:37:12.371Z,89.20
2019-03-16T15:42:18.917Z,88.20
2019-03-16T15:47:25.399Z,89.00
2019-03-16T15:52:31.987Z,88.10
2019-03-16T15:57:38.624Z,88.90
2019-03-16T16:02:45.189Z,87.10
2019-03-16T16:07:51.731Z,86.30
2019-03-16T16:12:58.294Z,86.40
2019-03-16T16:18:04.977Z,87.10
2019-03-16T16:23:11.581Z,87.40
2019-03-16T16:28:18.322Z,87.80
2019-03-16T16:33:25.936Z,88.20
2019-03-16T16:38:32.543Z,87.00
2019-03-16T16:43:39.056Z,88.30
2019-03-16T16:48:45.671Z,86.40
2019-03-16T16:53:54.065Z,86.30
2019-03-16T16:59:00.705Z,86.90
2019-03-16T17:04:07.338Z,86.50
2019-03-16T17:09:13.964Z,86.00
2019-03-16T17:14:20.750Z,86.40
2019-03-16T17:19:27.325Z,86.50
2019-03-16T17:24:33.895Z,87.70
2019-03-16T17:29:40.481Z,86.90
2019-03-16T17:34:47.044Z,87.00
2019-03-16T17:39:53.499Z,87.90
2019-03-16T17:45:01.118Z,88.40
2019-03-16T17:50:08.548Z,88.10
2019-03-16T17:55:15.454Z,88.10
2019-03-16T18:00:22.085Z,87.50
2019-03-16T18:05:28.618Z,87.10
2019-03-16T18:10:35.241Z,87.60
2019-03-16T18:15:41.702Z,87.20
2019-03-16T18:20:48.276Z,87.60
2019-03-16T18:25:54.841Z,88.20
2019-03-16T18:31:01.424Z,88.40
2019-03-16T18:36:10.240Z,87.50
2019-03-16T18:41:16.324Z,87.90
2019-03-16T18:46:22.832Z,86.60
2019-03-16T18:51:41.749Z,87.00
2019-03-16T18:56:48.419Z,86.90
2019-03-16T19:01:55.443Z,87.40
2019-03-16T19:07:02.143Z,87.20
2019-03-16T19:12:08.849Z,87.10
2019-03-16T19:17:15.504Z,86.70
2019-03-16T19:22:22.072Z,86.50
2019-03-16T19:27:28.609Z,86.90
2019-03-16T19:32:37.627Z,86.30
2019-03-16T19:37:43.317Z,85.80
2019-03-16T19:42:49.943Z,85.60
2019-03-16T19:47:56.496Z,84.70
2019-03-16T19:53:03.066Z,84.60
2019-03-16T19:58:09.714Z,85.50
2019-03-16T20:03:16.274Z,85.50
2019-03-16T20:08:42.010Z,85.30
2019-03-16T20:13:48.581Z,84.70
2019-03-16T20:18:54.998Z,83.40
2019-03-16T20:24:01.407Z,83.20
2019-03-16T20:29:08.168Z,84.20
2019-03-16T20:34:14.799Z,83.50
2019-03-16T20:39:21.407Z,84.00
2019-03-16T20:44:27.977Z,83.50
2019-03-16T20:49:34.452Z,84.40
2019-03-16T20:54:40.927Z,83.80
2019-03-16T20:59:47.402Z,84.20
2019-03-16T21:04:53.963Z,84.60
2019-03-16T21:10:01.443Z,85.30
2019-03-16T21:15:09.365Z,84.70
2019-03-16T21:20:16.746Z,84.60
2019-03-16T21:25:23.311Z,84.90
2019-03-16T21:30:29.856Z,84.70
2019-03-16T21:35:36.475Z,84.30
2019-03-16T21:40:43.009Z,85.20
2019-03-16T21:45:49.475Z,85.30
2019-03-16T21:50:56.007Z,85.20
2019-03-16T21:56:02.480Z,85.30
2019-03-16T22:01:09.116Z,84.70
2019-03-16T22:06:15.732Z,85.80
2019-03-16T22:11:22.212Z,86.00
2019-03-16T22:16:28.685Z,86.10
2019-03-16T22:21:35.351Z,86.30
2019-03-16T22:26:41.889Z,87.10
2019-03-16T22:31:48.441Z,87.00
2019-03-16T22:36:55.000Z,88.30
2019-03-16T22:42:01.547Z,87.50
2019-03-16T22:47:08.112Z,87.80
2019-03-16T22:52:14.743Z,88.20
2019-03-16T22:57:21.214Z,88.50
2019-03-16T23:02:27.841Z,88.20
2019-03-16T23:07:34.386Z,88.30
2019-03-16T23:12:40.920Z,89.00
2019-03-16T23:17:47.492Z,88.70
2019-03-16T23:22:54.110Z,88.90
2019-03-16T23:28:00.651Z,89.50
2019-03-16T23:33:07.248Z,89.50
2019-03-16T23:38:13.862Z,89.90
2019-03-16T23:43:20.238Z,90.40
2019-03-16T23:48:26.812Z,91.80
2019-03-16T23:53:52.466Z,91.40
2019-03-16T23:58:58.940Z,91.80
